Terminal Aerodrome Forecast
Issued by NWS

Home | Current Version | Previous Version | Text Only | Print | Product List | Glossary On
Versions: 1 2 3 4 5 6 7 8 9 10 11 12 13
773
FTUS41 KPBZ 251409 AAA
TAFBVI
TAF AMD
KBVI 251409Z 2514/2612 25004KT P6SM OVC013
     FM251500 22007KT P6SM SCT035
     FM260000 25005KT P6SM VCTS BKN035CB
     FM260400 22006KT P6SM VCSH BKN025=

USA.gov is the U.S. government's official web portal to all federal, state and local government web resources and services.